createdAt,value
2022-07-26T00:00:16.741Z,7.90
2022-07-26T00:02:47.194Z,9.10
2022-07-26T00:05:15.820Z,8.95
2022-07-26T00:07:42.666Z,9.18
2022-07-26T00:10:09.556Z,8.90
2022-07-26T00:12:36.743Z,9.00
2022-07-26T00:15:06.101Z,9.88
2022-07-26T00:17:32.771Z,8.75
2022-07-26T00:19:59.647Z,8.30
2022-07-26T00:22:41.604Z,8.20
2022-07-26T00:25:09.627Z,8.93
2022-07-26T00:27:37.306Z,8.52
2022-07-26T00:30:07.703Z,8.55
2022-07-26T00:32:34.611Z,9.13
2022-07-26T00:35:01.412Z,8.52
2022-07-26T00:37:28.201Z,8.25
2022-07-26T00:39:54.924Z,7.93
2022-07-26T00:42:21.601Z,8.85
2022-07-26T00:44:48.353Z,8.60
2022-07-26T00:47:15.688Z,8.90
2022-07-26T00:49:43.275Z,8.07
2022-07-26T00:52:11.605Z,8.70
2022-07-26T00:54:40.231Z,8.32
2022-07-26T00:57:06.950Z,9.15
2022-07-26T00:59:33.762Z,9.23
2022-07-26T01:02:02.061Z,7.93
2022-07-26T01:04:29.099Z,7.93
2022-07-26T01:06:56.253Z,8.52
2022-07-26T01:09:23.370Z,8.73
2022-07-26T01:11:51.328Z,7.18
2022-07-26T01:14:22.514Z,8.45
2022-07-26T01:16:49.579Z,7.30
2022-07-26T01:19:17.060Z,7.57
2022-07-26T01:21:44.292Z,7.03
2022-07-26T01:24:11.229Z,7.32
2022-07-26T01:26:38.199Z,7.22
2022-07-26T01:29:05.482Z,7.22
2022-07-26T01:31:32.287Z,6.72
2022-07-26T01:33:59.262Z,7.50
2022-07-26T01:36:26.116Z,6.80
2022-07-26T01:38:52.906Z,6.38
2022-07-26T01:41:22.801Z,6.93
2022-07-26T01:44:06.057Z,6.88
2022-07-26T01:46:33.797Z,6.80
2022-07-26T01:49:01.710Z,6.88
2022-07-26T01:51:28.745Z,5.68
2022-07-26T01:53:55.510Z,6.05
2022-07-26T01:56:22.302Z,6.68
2022-07-26T01:58:50.026Z,6.40
2022-07-26T02:01:16.874Z,6.38
2022-07-26T02:06:29.956Z,6.55
2022-07-26T02:08:56.561Z,6.50
2022-07-26T02:11:23.332Z,6.28
2022-07-26T02:13:53.065Z,6.72
2022-07-26T02:16:20.185Z,6.65
2022-07-26T02:18:47.043Z,7.10
2022-07-26T02:21:13.729Z,6.82
2022-07-26T02:23:41.937Z,6.50
2022-07-26T02:26:09.405Z,6.45
2022-07-26T02:28:36.100Z,6.38
2022-07-26T02:31:02.970Z,6.35
2022-07-26T02:33:29.763Z,6.40
2022-07-26T02:35:56.526Z,6.22
2022-07-26T02:38:23.162Z,6.85
2022-07-26T02:40:52.867Z,6.28
2022-07-26T02:43:20.021Z,6.72
2022-07-26T02:46:01.574Z,6.65
2022-07-26T02:48:31.020Z,7.50
2022-07-26T02:50:57.837Z,7.57
2022-07-26T02:53:24.502Z,6.78
2022-07-26T02:55:51.130Z,7.10
2022-07-26T02:58:19.971Z,7.13
2022-07-26T03:00:46.637Z,7.35
2022-07-26T03:03:14.388Z,7.43
2022-07-26T03:05:41.505Z,6.72
2022-07-26T03:08:08.810Z,6.60
2022-07-26T03:10:35.635Z,7.03
2022-07-26T03:13:02.519Z,6.88
2022-07-26T03:15:29.419Z,7.43
2022-07-26T03:17:56.190Z,7.60
2022-07-26T03:20:23.058Z,7.82
2022-07-26T03:22:49.794Z,7.88
2022-07-26T03:25:16.550Z,6.80
2022-07-26T03:27:43.521Z,8.25
2022-07-26T03:30:11.024Z,8.27
2022-07-26T03:32:37.917Z,8.05
2022-07-26T03:35:06.295Z,7.43
2022-07-26T03:37:45.758Z,7.57
2022-07-26T03:40:14.991Z,7.35
2022-07-26T03:42:41.677Z,7.60
2022-07-26T03:45:09.408Z,7.75
2022-07-26T03:47:37.241Z,7.72
2022-07-26T03:50:05.593Z,7.85
2022-07-26T03:52:32.246Z,7.38
2022-07-26T03:54:59.067Z,7.25
2022-07-26T03:57:25.736Z,7.40
2022-07-26T03:59:58.405Z,7.72
2022-07-26T04:02:25.117Z,7.72
2022-07-26T04:04:51.810Z,8.02
2022-07-26T04:07:18.433Z,7.10
2022-07-26T04:09:45.914Z,7.85
2022-07-26T04:12:12.582Z,8.07
2022-07-26T04:14:42.531Z,7.05
2022-07-26T04:17:09.490Z,7.80
2022-07-26T04:19:39.817Z,7.45
2022-07-26T04:22:07.060Z,7.10
2022-07-26T04:24:33.753Z,7.20
2022-07-26T04:27:00.463Z,7.35
2022-07-26T04:29:27.195Z,7.55
2022-07-26T04:31:53.813Z,7.30
2022-07-26T04:34:20.487Z,6.55
2022-07-26T04:36:47.140Z,6.88
2022-07-26T04:39:13.756Z,7.50
2022-07-26T04:41:40.418Z,6.72
2022-07-26T04:44:07.435Z,7.28
2022-07-26T04:46:34.311Z,7.05
2022-07-26T04:49:01.132Z,8.00
2022-07-26T04:51:27.845Z,6.80
2022-07-26T04:53:54.549Z,7.75
2022-07-26T04:56:21.233Z,7.82
2022-07-26T04:58:47.984Z,7.20
2022-07-26T05:01:15.145Z,7.43
2022-07-26T05:03:41.996Z,7.53
2022-07-26T05:06:08.708Z,8.30
2022-07-26T05:08:35.413Z,8.73
2022-07-26T05:11:02.144Z,8.25
2022-07-26T05:13:29.813Z,7.80
2022-07-26T05:15:57.915Z,7.53
2022-07-26T05:18:25.735Z,8.30
2022-07-26T05:20:52.667Z,8.00
2022-07-26T05:23:20.654Z,7.90
2022-07-26T05:25:47.541Z,7.65
2022-07-26T05:28:14.424Z,8.05
2022-07-26T05:30:41.144Z,7.43
2022-07-26T05:33:08.022Z,7.90
2022-07-26T05:35:34.720Z,8.02
2022-07-26T05:38:02.009Z,8.23
2022-07-26T05:40:28.788Z,8.20
2022-07-26T05:42:55.740Z,9.05
2022-07-26T05:45:22.586Z,8.25
2022-07-26T05:47:51.006Z,8.43
2022-07-26T05:50:17.927Z,8.40
2022-07-26T05:52:44.860Z,8.73
2022-07-26T05:55:11.600Z,7.57
2022-07-26T05:57:41.567Z,8.52
2022-07-26T06:00:10.013Z,9.18
2022-07-26T06:02:36.832Z,9.00
2022-07-26T06:05:03.929Z,9.48
2022-07-26T06:07:30.676Z,8.65
2022-07-26T06:09:57.347Z,8.27
2022-07-26T06:12:24.173Z,9.13
2022-07-26T06:14:50.933Z,8.00
2022-07-26T06:17:17.699Z,7.68
2022-07-26T06:19:47.731Z,8.13
2022-07-26T06:22:14.990Z,8.30
2022-07-26T06:24:41.678Z,7.65
2022-07-26T06:27:08.417Z,7.07
2022-07-26T06:29:35.059Z,7.97
2022-07-26T06:32:02.142Z,7.88
2022-07-26T06:34:29.004Z,8.57
2022-07-26T06:36:55.737Z,8.38
2022-07-26T06:39:22.414Z,9.15
2022-07-26T06:41:49.123Z,8.57
2022-07-26T06:44:15.759Z,8.98
2022-07-26T06:46:42.407Z,8.90
2022-07-26T06:49:09.188Z,8.63
2022-07-26T06:51:35.878Z,9.13
2022-07-26T06:54:03.776Z,8.27
2022-07-26T06:56:30.456Z,8.05
2022-07-26T06:58:57.091Z,8.63
2022-07-26T07:01:58.273Z,8.07
2022-07-26T07:04:11.066Z,8.48
2022-07-26T07:06:38.009Z,8.63
2022-07-26T07:09:04.925Z,8.75
2022-07-26T07:11:35.353Z,8.80
2022-07-26T07:14:03.328Z,8.65
2022-07-26T07:16:30.339Z,8.98
2022-07-26T07:18:57.211Z,9.10
2022-07-26T07:21:23.911Z,8.73
2022-07-26T07:23:50.536Z,8.25
2022-07-26T07:26:17.189Z,7.82
2022-07-26T07:28:43.856Z,8.55
2022-07-26T07:31:10.569Z,8.40
2022-07-26T07:33:52.888Z,8.40
2022-07-26T07:36:21.434Z,8.27
2022-07-26T07:38:49.402Z,8.52
2022-07-26T07:41:16.373Z,7.80
2022-07-26T07:43:43.066Z,7.80
2022-07-26T07:46:09.860Z,8.15
2022-07-26T07:48:37.603Z,7.95
2022-07-26T07:51:04.389Z,7.70
2022-07-26T07:53:31.864Z,7.78
2022-07-26T07:55:58.753Z,7.45
2022-07-26T07:58:25.764Z,8.25
2022-07-26T08:00:55.139Z,7.75
2022-07-26T08:03:22.084Z,7.43
2022-07-26T08:05:49.850Z,8.00
2022-07-26T08:08:18.609Z,8.18
2022-07-26T08:10:51.902Z,8.35
2022-07-26T08:13:21.294Z,7.43
2022-07-26T08:15:51.215Z,8.65
2022-07-26T08:18:18.060Z,8.32
2022-07-26T08:20:48.686Z,8.30
2022-07-26T08:23:16.513Z,8.27
2022-07-26T08:25:55.724Z,7.90
2022-07-26T08:28:45.574Z,7.43
2022-07-26T08:31:10.257Z,7.88
2022-07-26T08:33:37.048Z,8.02
2022-07-26T08:36:07.775Z,8.15
2022-07-26T08:38:34.564Z,8.82
2022-07-26T08:41:01.279Z,8.32
2022-07-26T08:43:28.998Z,8.63
2022-07-26T08:46:04.177Z,9.48
2022-07-26T08:48:31.017Z,8.30
2022-07-26T08:50:59.788Z,8.65
2022-07-26T08:53:29.846Z,9.25
2022-07-26T08:56:06.776Z,8.00
2022-07-26T08:58:36.296Z,8.30
2022-07-26T09:01:05.923Z,8.68
2022-07-26T09:03:32.784Z,9.07
2022-07-26T09:06:12.221Z,9.15
2022-07-26T09:08:39.300Z,8.15
2022-07-26T09:11:28.257Z,7.63
2022-07-26T09:13:54.926Z,8.63
2022-07-26T09:16:21.741Z,9.30
2022-07-26T09:18:48.638Z,8.57
2022-07-26T09:21:31.871Z,9.15
2022-07-26T09:23:59.608Z,9.52
2022-07-26T09:26:27.229Z,9.65
2022-07-26T09:29:10.435Z,9.38
2022-07-26T09:31:39.183Z,10.75
2022-07-26T09:34:07.289Z,10.38
2022-07-26T09:36:51.595Z,9.63
2022-07-26T09:39:22.731Z,11.13
2022-07-26T09:42:26.835Z,10.20
2022-07-26T09:44:56.207Z,11.70
2022-07-26T09:47:24.176Z,12.07
2022-07-26T09:50:11.685Z,12.02
2022-07-26T09:52:38.653Z,13.15
2022-07-26T09:55:07.724Z,13.05
2022-07-26T09:57:36.225Z,12.77
2022-07-26T10:00:05.873Z,13.23
2022-07-26T10:02:34.694Z,13.60
2022-07-26T10:05:01.817Z,12.05
2022-07-26T10:07:28.816Z,14.35
2022-07-26T10:10:03.587Z,14.18
2022-07-26T10:12:33.102Z,13.48
2022-07-26T10:14:59.903Z,13.32
2022-07-26T10:17:45.907Z,14.15
2022-07-26T10:20:43.155Z,13.68
2022-07-26T10:23:36.466Z,13.35
2022-07-26T10:26:05.753Z,14.15
2022-07-26T10:28:35.410Z,14.48
2022-07-26T10:31:25.796Z,13.70
2022-07-26T10:33:54.853Z,14.38
2022-07-26T10:36:22.734Z,14.15
2022-07-26T10:39:06.387Z,14.40
2022-07-26T10:41:57.397Z,13.77
2022-07-26T10:44:25.667Z,12.55
2022-07-26T10:46:56.859Z,12.45
2022-07-26T10:49:40.644Z,13.02
2022-07-26T10:52:10.535Z,11.43
2022-07-26T10:55:07.834Z,11.52
2022-07-26T10:57:38.326Z,12.70
2022-07-26T11:00:21.905Z,10.73
2022-07-26T11:02:53.015Z,11.18
2022-07-26T11:05:20.415Z,10.25
2022-07-26T11:08:06.259Z,9.43
2022-07-26T11:10:37.563Z,9.43
2022-07-26T11:13:11.145Z,8.95
2022-07-26T11:15:40.546Z,8.93
2022-07-26T11:18:12.580Z,9.05
2022-07-26T11:20:41.039Z,8.90
2022-07-26T11:23:24.916Z,9.88
2022-07-26T11:26:12.250Z,10.10
2022-07-26T11:28:53.016Z,9.88
2022-07-26T11:31:51.420Z,9.95
2022-07-26T11:34:18.807Z,9.23
2022-07-26T11:36:47.424Z,9.35
2022-07-26T11:39:20.372Z,9.00
2022-07-26T11:41:47.250Z,8.48
2022-07-26T11:44:17.307Z,8.15
2022-07-26T11:46:47.841Z,8.93
2022-07-26T11:49:18.419Z,8.38
2022-07-26T11:51:49.261Z,8.15
2022-07-26T11:54:16.844Z,8.05
2022-07-26T11:57:07.222Z,8.32
2022-07-26T11:59:36.491Z,7.18
2022-07-26T12:02:08.805Z,6.03
2022-07-26T12:04:39.317Z,5.45
2022-07-26T12:07:11.581Z,4.80
2022-07-26T12:09:41.754Z,5.35
2022-07-26T12:12:10.753Z,4.60
2022-07-26T12:14:38.937Z,4.18
2022-07-26T12:17:20.912Z,4.72
2022-07-26T12:19:47.762Z,5.22
2022-07-26T12:22:17.362Z,5.00
2022-07-26T12:24:45.107Z,4.90
2022-07-26T12:27:14.928Z,4.78
2022-07-26T12:29:44.755Z,4.97
2022-07-26T12:32:13.519Z,5.25
2022-07-26T12:34:42.244Z,5.70
2022-07-26T12:37:14.596Z,5.13
2022-07-26T12:39:42.542Z,5.15
2022-07-26T12:42:34.618Z,4.97
2022-07-26T12:45:03.154Z,5.10
2022-07-26T12:47:30.025Z,5.32
2022-07-26T12:49:56.697Z,5.55
2022-07-26T12:52:24.014Z,5.65
2022-07-26T12:54:53.118Z,5.50
2022-07-26T12:57:21.055Z,5.90
2022-07-26T12:59:48.845Z,4.95
2022-07-26T13:02:18.402Z,4.95
2022-07-26T13:04:45.835Z,4.82
2022-07-26T13:07:15.721Z,3.63
2022-07-26T13:09:43.503Z,3.88
2022-07-26T13:12:11.636Z,4.53
2022-07-26T13:14:39.200Z,4.68
2022-07-26T13:17:07.405Z,3.70
2022-07-26T13:19:35.097Z,3.47
2022-07-26T13:22:03.096Z,3.35
2022-07-26T13:24:32.545Z,3.95
2022-07-26T13:27:00.821Z,3.40
2022-07-26T13:29:27.898Z,3.30
2022-07-26T13:31:55.966Z,3.80
2022-07-26T13:34:24.050Z,3.60
2022-07-26T13:36:50.893Z,3.63
2022-07-26T13:39:18.091Z,3.78
2022-07-26T13:41:44.921Z,4.45
2022-07-26T13:44:11.994Z,4.10
2022-07-26T13:46:41.785Z,4.50
2022-07-26T13:49:08.592Z,4.00
2022-07-26T13:51:52.769Z,4.07
2022-07-26T13:54:20.821Z,3.90
2022-07-26T13:56:47.746Z,3.88
2022-07-26T13:59:15.639Z,3.97
2022-07-26T14:01:44.697Z,3.42
2022-07-26T14:04:13.158Z,3.88
2022-07-26T14:06:40.853Z,2.83
2022-07-26T14:09:11.045Z,2.90
2022-07-26T14:11:38.435Z,3.22
2022-07-26T14:14:06.298Z,2.65
2022-07-26T14:16:35.690Z,2.67
2022-07-26T14:19:02.607Z,2.42
2022-07-26T14:21:47.072Z,2.50
2022-07-26T14:24:18.995Z,2.63
2022-07-26T14:26:47.833Z,2.20
2022-07-26T14:29:15.174Z,1.95
2022-07-26T14:31:41.995Z,2.92
2022-07-26T14:34:08.999Z,2.40
2022-07-26T14:36:37.130Z,2.80
2022-07-26T14:39:03.938Z,2.78
2022-07-26T14:41:31.728Z,2.72
2022-07-26T14:43:58.573Z,2.53
2022-07-26T14:46:25.240Z,2.40
2022-07-26T14:48:54.890Z,2.83
2022-07-26T14:51:22.254Z,2.30
2022-07-26T14:53:48.978Z,2.72
2022-07-26T14:56:15.597Z,2.70
2022-07-26T14:58:42.366Z,2.45
2022-07-26T15:01:09.266Z,2.47
2022-07-26T15:03:36.052Z,2.65
2022-07-26T15:06:02.838Z,2.75
2022-07-26T15:08:29.557Z,3.42
2022-07-26T15:10:56.219Z,3.20
2022-07-26T15:13:22.988Z,3.20
2022-07-26T15:15:50.234Z,3.20
2022-07-26T15:18:16.941Z,2.80
2022-07-26T15:20:43.856Z,3.10
2022-07-26T15:23:12.221Z,3.00
2022-07-26T15:25:38.970Z,3.17
2022-07-26T15:28:05.722Z,3.03
2022-07-26T15:30:36.115Z,3.10
2022-07-26T15:33:02.962Z,3.15
2022-07-26T15:35:30.044Z,2.90
2022-07-26T15:37:57.848Z,2.90
2022-07-26T15:40:24.836Z,3.50
2022-07-26T15:42:52.899Z,2.97
2022-07-26T15:45:20.470Z,3.15
2022-07-26T15:48:03.152Z,2.60
2022-07-26T15:55:28.190Z,3.00
2022-07-26T15:57:55.047Z,3.30
2022-07-26T16:00:22.134Z,3.00
2022-07-26T16:02:52.159Z,2.67
2022-07-26T16:05:19.000Z,2.95
2022-07-26T16:07:46.259Z,2.80
2022-07-26T16:10:14.295Z,2.70
2022-07-26T16:12:42.177Z,3.03
2022-07-26T16:15:10.276Z,3.47
2022-07-26T16:17:37.434Z,3.00
2022-07-26T16:20:05.342Z,3.15
2022-07-26T16:22:33.046Z,3.38
2022-07-26T16:24:59.773Z,3.28
2022-07-26T16:27:26.477Z,3.83
2022-07-26T16:29:53.296Z,3.17
2022-07-26T16:32:21.328Z,3.30
2022-07-26T16:34:48.357Z,3.00
2022-07-26T16:37:15.622Z,2.83
2022-07-26T16:39:42.619Z,2.88
2022-07-26T16:42:09.460Z,2.95
2022-07-26T16:44:36.459Z,2.53
2022-07-26T16:47:04.206Z,3.35
2022-07-26T16:49:31.313Z,3.10
2022-07-26T16:51:58.352Z,3.20
2022-07-26T16:54:25.239Z,3.60
2022-07-26T16:56:51.997Z,3.30
2022-07-26T16:59:18.977Z,3.28
2022-07-26T17:01:45.787Z,2.90
2022-07-26T17:04:12.642Z,3.08
2022-07-26T17:06:39.390Z,3.03
2022-07-26T17:09:06.084Z,3.35
2022-07-26T17:11:33.116Z,3.33
2022-07-26T17:13:59.916Z,3.05
2022-07-26T17:16:27.418Z,2.92
2022-07-26T17:18:55.382Z,2.88
2022-07-26T17:21:22.407Z,2.35
2022-07-26T17:23:50.363Z,2.90
2022-07-26T17:26:18.769Z,2.75
2022-07-26T17:28:46.009Z,2.63
2022-07-26T17:31:12.796Z,2.70
2022-07-26T17:33:39.652Z,2.60
2022-07-26T17:36:24.398Z,2.90
2022-07-26T17:38:52.028Z,2.90
2022-07-26T17:41:19.878Z,3.00
2022-07-26T17:43:47.292Z,2.58
2022-07-26T17:46:14.131Z,2.80
2022-07-26T17:48:43.947Z,2.42
2022-07-26T17:51:10.789Z,2.45
2022-07-26T17:53:37.520Z,2.72
2022-07-26T17:56:04.493Z,2.47
2022-07-26T17:58:31.318Z,2.47
2022-07-26T18:00:58.044Z,3.13
2022-07-26T18:03:24.935Z,2.63
2022-07-26T18:05:51.861Z,2.70
2022-07-26T18:08:18.677Z,2.50
2022-07-26T18:10:50.690Z,2.83
2022-07-26T18:13:17.897Z,2.63
2022-07-26T18:15:44.862Z,2.40
2022-07-26T18:18:11.664Z,2.28
2022-07-26T18:20:38.454Z,2.25
2022-07-26T18:23:05.267Z,2.40
2022-07-26T18:25:32.090Z,2.40
2022-07-26T18:28:03.271Z,2.45
2022-07-26T18:30:33.536Z,2.70
2022-07-26T18:33:00.342Z,2.47
2022-07-26T18:35:27.606Z,2.67
2022-07-26T18:37:54.598Z,2.60
2022-07-26T18:40:23.640Z,2.40
2022-07-26T18:42:50.709Z,2.38
2022-07-26T18:45:17.482Z,2.50
2022-07-26T18:47:44.292Z,2.58
2022-07-26T18:50:16.943Z,2.20
2022-07-26T18:52:44.736Z,2.45
2022-07-26T18:55:12.928Z,2.40
2022-07-26T18:57:41.186Z,2.70
2022-07-26T19:00:14.209Z,2.30
2022-07-26T19:02:41.933Z,2.63
2022-07-26T19:05:09.386Z,2.72
2022-07-26T19:07:37.676Z,2.10
2022-07-26T19:10:06.520Z,2.20
2022-07-26T19:12:33.312Z,2.00
2022-07-26T19:15:00.118Z,2.00
2022-07-26T19:17:28.001Z,1.88
2022-07-26T19:19:57.435Z,2.13
2022-07-26T19:22:25.952Z,2.10
2022-07-26T19:24:52.860Z,2.17
2022-07-26T19:27:19.686Z,2.45
2022-07-26T19:29:46.533Z,2.00
2022-07-26T19:32:13.179Z,1.95
2022-07-26T19:34:40.152Z,2.08
2022-07-26T19:37:06.823Z,1.88
2022-07-26T19:39:33.551Z,2.03
2022-07-26T19:42:00.218Z,1.85
2022-07-26T19:44:27.294Z,2.50
2022-07-26T19:46:57.469Z,1.92
2022-07-26T19:49:25.180Z,2.17
2022-07-26T19:51:52.021Z,2.67
2022-07-26T19:54:18.877Z,2.05
2022-07-26T19:56:45.527Z,1.95
2022-07-26T19:59:12.689Z,2.05
2022-07-26T20:01:39.769Z,2.17
2022-07-26T20:04:06.556Z,2.13
2022-07-26T20:06:33.606Z,2.15
2022-07-26T20:09:00.301Z,2.15
2022-07-26T20:11:28.239Z,1.90
2022-07-26T20:13:55.563Z,1.83
2022-07-26T20:16:22.427Z,2.25
2022-07-26T20:18:49.180Z,2.30
2022-07-26T20:21:16.141Z,2.40
2022-07-26T20:23:42.951Z,2.22
2022-07-26T20:26:09.779Z,2.83
2022-07-26T20:28:38.342Z,2.33
2022-07-26T20:31:05.149Z,2.40
2022-07-26T20:33:32.039Z,2.50
2022-07-26T20:35:58.787Z,3.17
2022-07-26T20:38:25.554Z,2.17
2022-07-26T20:40:52.800Z,2.38
2022-07-26T20:43:22.354Z,2.47
2022-07-26T20:45:49.646Z,2.28
2022-07-26T20:48:16.348Z,2.55
2022-07-26T20:50:43.151Z,2.33
2022-07-26T20:53:09.932Z,1.95
2022-07-26T20:55:37.069Z,2.08
2022-07-26T20:58:03.793Z,2.40
2022-07-26T21:00:30.632Z,2.05
2022-07-26T21:02:59.425Z,2.33
2022-07-26T21:05:30.855Z,2.22
2022-07-26T21:07:59.974Z,2.10
2022-07-26T21:10:29.304Z,2.20
2022-07-26T21:13:00.270Z,1.90
2022-07-26T21:15:29.220Z,2.42
2022-07-26T21:17:56.128Z,2.10
2022-07-26T21:20:22.792Z,1.90
2022-07-26T21:22:49.498Z,2.40
2022-07-26T21:25:16.232Z,2.20
2022-07-26T21:27:43.049Z,2.22
2022-07-26T21:30:10.256Z,2.70
2022-07-26T21:32:37.035Z,2.30
2022-07-26T21:35:04.380Z,2.13
2022-07-26T21:37:31.157Z,2.38
2022-07-26T21:39:57.772Z,2.88
2022-07-26T21:42:27.648Z,3.10
2022-07-26T21:44:54.323Z,2.80
2022-07-26T21:47:20.998Z,2.53
2022-07-26T21:49:47.674Z,2.80
2022-07-26T21:52:14.479Z,2.40
2022-07-26T21:54:41.141Z,2.60
2022-07-26T21:57:07.877Z,2.42
2022-07-26T21:59:34.613Z,2.58
2022-07-26T22:02:01.427Z,2.63
2022-07-26T22:04:28.190Z,2.22
2022-07-26T22:06:54.820Z,2.15
2022-07-26T22:09:21.494Z,2.63
2022-07-26T22:11:48.256Z,2.90
2022-07-26T22:14:14.958Z,2.20
2022-07-26T22:16:44.653Z,2.50
2022-07-26T22:19:11.748Z,1.90
2022-07-26T22:21:39.724Z,2.42
2022-07-26T22:24:06.909Z,2.25
2022-07-26T22:26:33.673Z,2.40
2022-07-26T22:29:00.562Z,2.75
2022-07-26T22:31:27.826Z,2.85
2022-07-26T22:33:54.565Z,2.40
2022-07-26T22:36:21.277Z,2.70
2022-07-26T22:38:48.058Z,2.40
2022-07-26T22:41:14.770Z,2.83
2022-07-26T22:43:41.500Z,2.28
2022-07-26T22:46:08.372Z,2.42
2022-07-26T22:48:38.383Z,2.30
2022-07-26T22:51:05.479Z,2.53
2022-07-26T22:53:32.166Z,2.42
2022-07-26T22:55:58.861Z,2.60
2022-07-26T22:58:25.538Z,2.45
2022-07-26T23:00:52.293Z,2.75
2022-07-26T23:03:21.578Z,2.67
2022-07-26T23:05:49.931Z,2.85
2022-07-26T23:11:04.808Z,2.30
2022-07-26T23:13:31.598Z,2.90
2022-07-26T23:16:01.288Z,2.90
2022-07-26T23:18:29.957Z,2.53
2022-07-26T23:20:56.944Z,3.03
2022-07-26T23:23:24.991Z,2.90
2022-07-26T23:25:56.080Z,3.00
2022-07-26T23:28:35.866Z,2.80
2022-07-26T23:31:06.406Z,2.70
2022-07-26T23:33:51.415Z,3.78
2022-07-26T23:36:19.931Z,3.22
2022-07-26T23:38:46.579Z,3.10
2022-07-26T23:41:13.277Z,2.92
2022-07-26T23:43:39.981Z,2.97
2022-07-26T23:46:06.653Z,3.30
2022-07-26T23:48:33.436Z,2.72
2022-07-26T23:51:00.109Z,2.88
2022-07-26T23:53:27.427Z,2.90
2022-07-26T23:55:54.807Z,2.75
2022-07-26T23:58:21.952Z,2.78
